sensor_id;sensor_type;location;lat;lon;timestamp;P1;durP1;ratioP1;P2;durP2;ratioP2
70535;SDS011;58089;48.752;11.338;2022-12-18T05:02:30;48.97;;;14.80;;
70535;SDS011;58089;48.752;11.338;2022-12-18T05:04:55;56.50;;;16.23;;
70535;SDS011;58089;48.752;11.338;2022-12-18T05:07:20;50.83;;;17.80;;
70535;SDS011;58089;48.752;11.338;2022-12-18T05:09:46;53.00;;;16.80;;
70535;SDS011;58089;48.752;11.338;2022-12-18T05:12:11;52.83;;;17.20;;
70535;SDS011;58089;48.752;11.338;2022-12-18T05:14:36;50.97;;;17.57;;
70535;SDS011;58089;48.752;11.338;2022-12-18T05:17:01;53.90;;;16.87;;
70535;SDS011;58089;48.752;11.338;2022-12-18T05:19:27;46.77;;;16.40;;
70535;SDS011;58089;48.752;11.338;2022-12-18T05:21:52;48.30;;;17.23;;
70535;SDS011;58089;48.752;11.338;2022-12-18T05:24:17;48.20;;;15.97;;
70535;SDS011;58089;48.752;11.338;2022-12-18T05:26:43;43.80;;;14.63;;
70535;SDS011;58089;48.752;11.338;2022-12-18T05:29:08;40.87;;;15.73;;
70535;SDS011;58089;48.752;11.338;2022-12-18T05:31:37;40.65;;;14.77;;
70535;SDS011;58089;48.752;11.338;2022-12-18T05:34:02;47.30;;;15.83;;
70535;SDS011;58089;48.752;11.338;2022-12-18T05:36:27;45.87;;;16.20;;
70535;SDS011;58089;48.752;11.338;2022-12-18T05:38:53;42.65;;;14.60;;
70535;SDS011;58089;48.752;11.338;2022-12-18T05:41:18;38.73;;;14.50;;
70535;SDS011;58089;48.752;11.338;2022-12-18T05:43:43;47.07;;;17.13;;
70535;SDS011;58089;48.752;11.338;2022-12-18T05:46:11;44.60;;;15.43;;
70535;SDS011;58089;48.752;11.338;2022-12-18T05:48:37;46.08;;;16.42;;
70535;SDS011;58089;48.752;11.338;2022-12-18T05:51:04;47.23;;;16.20;;
70535;SDS011;58089;48.752;11.338;2022-12-18T05:53:33;45.65;;;15.60;;
70535;SDS011;58089;48.752;11.338;2022-12-18T05:56:00;45.83;;;16.63;;
70535;SDS011;58089;48.752;11.338;2022-12-18T05:58:26;45.40;;;16.23;;
70535;SDS011;58089;48.752;11.338;2022-12-18T06:00:51;45.73;;;15.67;;
70535;SDS011;58089;48.752;11.338;2022-12-18T06:03:16;43.10;;;16.40;;
70535;SDS011;58089;48.752;11.338;2022-12-18T06:05:42;42.77;;;16.13;;
70535;SDS011;58089;48.752;11.338;2022-12-18T06:08:09;41.85;;;14.95;;
70535;SDS011;58089;48.752;11.338;2022-12-18T06:10:34;39.63;;;15.30;;
70535;SDS011;58089;48.752;11.338;2022-12-18T06:12:59;37.60;;;13.80;;
70535;SDS011;58089;48.752;11.338;2022-12-18T06:15:25;35.70;;;12.40;;
70535;SDS011;58089;48.752;11.338;2022-12-18T06:17:50;39.67;;;14.53;;
70535;SDS011;58089;48.752;11.338;2022-12-18T06:20:16;39.17;;;14.03;;
70535;SDS011;58089;48.752;11.338;2022-12-18T06:22:41;39.03;;;13.85;;
70535;SDS011;58089;48.752;11.338;2022-12-18T06:25:07;37.93;;;14.60;;
70535;SDS011;58089;48.752;11.338;2022-12-18T06:27:33;36.20;;;13.38;;
70535;SDS011;58089;48.752;11.338;2022-12-18T06:30:01;40.70;;;13.70;;
70535;SDS011;58089;48.752;11.338;2022-12-18T06:32:26;38.65;;;13.52;;
70535;SDS011;58089;48.752;11.338;2022-12-18T06:34:52;38.50;;;13.97;;
70535;SDS011;58089;48.752;11.338;2022-12-18T06:37:18;35.05;;;12.93;;
70535;SDS011;58089;48.752;11.338;2022-12-18T06:39:43;37.03;;;13.40;;
70535;SDS011;58089;48.752;11.338;2022-12-18T06:42:08;40.20;;;15.40;;
70535;SDS011;58089;48.752;11.338;2022-12-18T06:44:33;38.13;;;13.57;;
70535;SDS011;58089;48.752;11.338;2022-12-18T06:46:59;37.23;;;15.00;;
70535;SDS011;58089;48.752;11.338;2022-12-18T06:49:24;39.43;;;13.90;;
70535;SDS011;58089;48.752;11.338;2022-12-18T06:51:49;41.00;;;13.50;;
70535;SDS011;58089;48.752;11.338;2022-12-18T06:54:15;38.70;;;13.10;;
70535;SDS011;58089;48.752;11.338;2022-12-18T06:56:40;37.57;;;13.43;;
70535;SDS011;58089;48.752;11.338;2022-12-18T06:59:05;39.03;;;14.80;;
70535;SDS011;58089;48.752;11.338;2022-12-18T15:26:18;40.95;;;19.27;;
70535;SDS011;58089;48.752;11.338;2022-12-18T15:28:48;70.50;;;28.87;;
70535;SDS011;58089;48.752;11.338;2022-12-18T15:31:21;47.88;;;32.45;;
70535;SDS011;58089;48.752;11.338;2022-12-18T15:36:18;36.97;;;19.05;;
70535;SDS011;58089;48.752;11.338;2022-12-18T15:38:48;34.75;;;16.20;;
70535;SDS011;58089;48.752;11.338;2022-12-18T15:41:14;38.70;;;19.00;;
70535;SDS011;58089;48.752;11.338;2022-12-18T15:43:41;35.50;;;16.15;;
70535;SDS011;58089;48.752;11.338;2022-12-18T15:46:08;40.07;;;21.00;;
70535;SDS011;58089;48.752;11.338;2022-12-18T15:48:39;33.47;;;17.27;;
70535;SDS011;58089;48.752;11.338;2022-12-18T15:51:08;36.08;;;17.45;;
70535;SDS011;58089;48.752;11.338;2022-12-18T15:53:37;30.55;;;14.70;;
70535;SDS011;58089;48.752;11.338;2022-12-18T15:56:04;35.28;;;15.48;;
70535;SDS011;58089;48.752;11.338;2022-12-18T15:58:48;32.73;;;14.83;;
70535;SDS011;58089;48.752;11.338;2022-12-18T16:01:13;33.58;;;15.30;;
70535;SDS011;58089;48.752;11.338;2022-12-18T16:03:50;30.87;;;13.73;;
70535;SDS011;58089;48.752;11.338;2022-12-18T16:06:16;33.80;;;14.97;;
70535;SDS011;58089;48.752;11.338;2022-12-18T16:08:41;31.30;;;13.77;;
70535;SDS011;58089;48.752;11.338;2022-12-18T16:11:08;33.60;;;14.13;;
70535;SDS011;58089;48.752;11.338;2022-12-18T16:13:45;37.40;;;19.07;;
70535;SDS011;58089;48.752;11.338;2022-12-18T16:16:10;37.23;;;16.53;;
70535;SDS011;58089;48.752;11.338;2022-12-18T16:18:35;39.20;;;16.40;;
70535;SDS011;58089;48.752;11.338;2022-12-18T16:21:01;32.53;;;15.13;;
70535;SDS011;58089;48.752;11.338;2022-12-18T16:23:26;36.80;;;17.30;;
70535;SDS011;58089;48.752;11.338;2022-12-18T16:25:52;30.37;;;13.97;;
70535;SDS011;58089;48.752;11.338;2022-12-18T16:28:17;36.35;;;14.65;;
70535;SDS011;58089;48.752;11.338;2022-12-18T16:30:42;38.97;;;15.03;;
70535;SDS011;58089;48.752;11.338;2022-12-18T16:33:08;31.00;;;13.40;;
70535;SDS011;58089;48.752;11.338;2022-12-18T16:35:34;37.83;;;16.90;;
70535;SDS011;58089;48.752;11.338;2022-12-18T16:38:01;36.07;;;14.00;;
70535;SDS011;58089;48.752;11.338;2022-12-18T16:40:27;32.10;;;13.53;;
70535;SDS011;58089;48.752;11.338;2022-12-18T16:42:52;36.10;;;15.50;;
70535;SDS011;58089;48.752;11.338;2022-12-18T16:45:17;33.10;;;14.17;;
70535;SDS011;58089;48.752;11.338;2022-12-18T16:47:43;32.90;;;14.70;;
70535;SDS011;58089;48.752;11.338;2022-12-18T16:50:09;30.10;;;12.80;;
70535;SDS011;58089;48.752;11.338;2022-12-18T16:52:35;30.50;;;11.97;;
70535;SDS011;58089;48.752;11.338;2022-12-18T16:55:00;31.63;;;12.45;;
70535;SDS011;58089;48.752;11.338;2022-12-18T16:57:26;33.10;;;13.23;;
70535;SDS011;58089;48.752;11.338;2022-12-18T16:59:51;27.08;;;12.05;;
70535;SDS011;58089;48.752;11.338;2022-12-18T17:02:21;27.50;;;11.83;;
70535;SDS011;58089;48.752;11.338;2022-12-18T17:04:47;28.25;;;10.57;;
70535;SDS011;58089;48.752;11.338;2022-12-18T17:07:13;31.97;;;13.13;;
70535;SDS011;58089;48.752;11.338;2022-12-18T17:09:39;30.95;;;13.45;;
70535;SDS011;58089;48.752;11.338;2022-12-18T17:12:04;28.83;;;12.17;;
70535;SDS011;58089;48.752;11.338;2022-12-18T17:14:30;27.60;;;12.20;;
70535;SDS011;58089;48.752;11.338;2022-12-18T17:16:56;27.92;;;12.63;;
70535;SDS011;58089;48.752;11.338;2022-12-18T17:19:22;31.83;;;12.93;;
70535;SDS011;58089;48.752;11.338;2022-12-18T17:21:48;21.48;;;9.70;;
70535;SDS011;58089;48.752;11.338;2022-12-18T17:24:14;24.33;;;11.15;;
70535;SDS011;58089;48.752;11.338;2022-12-18T17:26:40;27.47;;;11.70;;
70535;SDS011;58089;48.752;11.338;2022-12-18T17:29:06;32.25;;;13.23;;
70535;SDS011;58089;48.752;11.338;2022-12-18T17:31:31;28.43;;;12.63;;
70535;SDS011;58089;48.752;11.338;2022-12-18T17:33:57;29.97;;;13.10;;
70535;SDS011;58089;48.752;11.338;2022-12-18T17:36:23;34.57;;;13.27;;
70535;SDS011;58089;48.752;11.338;2022-12-18T17:38:50;32.25;;;13.00;;
70535;SDS011;58089;48.752;11.338;2022-12-18T17:41:16;24.77;;;10.88;;
70535;SDS011;58089;48.752;11.338;2022-12-18T17:43:41;27.63;;;10.47;;
70535;SDS011;58089;48.752;11.338;2022-12-18T17:46:11;30.30;;;12.75;;
70535;SDS011;58089;48.752;11.338;2022-12-18T17:48:37;26.00;;;12.35;;
70535;SDS011;58089;48.752;11.338;2022-12-18T17:51:04;30.87;;;14.27;;
70535;SDS011;58089;48.752;11.338;2022-12-18T17:53:30;29.42;;;12.45;;
70535;SDS011;58089;48.752;11.338;2022-12-18T17:55:56;27.67;;;10.57;;
70535;SDS011;58089;48.752;11.338;2022-12-18T17:58:22;27.70;;;12.80;;
70535;SDS011;58089;48.752;11.338;2022-12-18T18:00:47;32.93;;;13.53;;
70535;SDS011;58089;48.752;11.338;2022-12-18T18:03:12;29.10;;;12.37;;
70535;SDS011;58089;48.752;11.338;2022-12-18T18:05:38;27.40;;;12.93;;
70535;SDS011;58089;48.752;11.338;2022-12-18T18:08:03;29.23;;;12.82;;
70535;SDS011;58089;48.752;11.338;2022-12-18T18:10:28;22.57;;;10.43;;
70535;SDS011;58089;48.752;11.338;2022-12-18T18:12:54;26.60;;;12.90;;
70535;SDS011;58089;48.752;11.338;2022-12-18T18:15:38;33.25;;;14.60;;
70535;SDS011;58089;48.752;11.338;2022-12-18T18:18:03;30.53;;;13.87;;
70535;SDS011;58089;48.752;11.338;2022-12-18T18:20:28;35.30;;;15.80;;
70535;SDS011;58089;48.752;11.338;2022-12-18T18:22:54;33.77;;;15.53;;
70535;SDS011;58089;48.752;11.338;2022-12-18T18:25:20;35.85;;;16.13;;
70535;SDS011;58089;48.752;11.338;2022-12-18T18:27:45;42.70;;;20.33;;
70535;SDS011;58089;48.752;11.338;2022-12-18T18:30:11;36.37;;;16.83;;
70535;SDS011;58089;48.752;11.338;2022-12-18T18:32:36;38.67;;;17.10;;
70535;SDS011;58089;48.752;11.338;2022-12-18T18:35:04;36.47;;;17.67;;
70535;SDS011;58089;48.752;11.338;2022-12-18T18:37:31;38.67;;;16.58;;
70535;SDS011;58089;48.752;11.338;2022-12-18T18:39:56;35.80;;;16.47;;
70535;SDS011;58089;48.752;11.338;2022-12-18T18:42:21;33.10;;;14.30;;
70535;SDS011;58089;48.752;11.338;2022-12-18T18:44:47;38.60;;;15.80;;
70535;SDS011;58089;48.752;11.338;2022-12-18T18:47:12;31.77;;;13.73;;
70535;SDS011;58089;48.752;11.338;2022-12-18T18:49:38;38.83;;;17.43;;
70535;SDS011;58089;48.752;11.338;2022-12-18T18:52:03;31.05;;;14.05;;
70535;SDS011;58089;48.752;11.338;2022-12-18T18:54:29;34.97;;;15.03;;
70535;SDS011;58089;48.752;11.338;2022-12-18T18:56:55;28.45;;;11.50;;
70535;SDS011;58089;48.752;11.338;2022-12-18T18:59:20;33.10;;;13.93;;
70535;SDS011;58089;48.752;11.338;2022-12-18T19:01:45;29.70;;;13.07;;
70535;SDS011;58089;48.752;11.338;2022-12-18T19:04:12;35.33;;;15.10;;
70535;SDS011;58089;48.752;11.338;2022-12-18T19:06:39;41.00;;;16.73;;
70535;SDS011;58089;48.752;11.338;2022-12-18T19:09:05;47.72;;;21.90;;
70535;SDS011;58089;48.752;11.338;2022-12-18T19:11:30;37.10;;;16.43;;
70535;SDS011;58089;48.752;11.338;2022-12-18T19:14:14;25.70;;;11.50;;
70535;SDS011;58089;48.752;11.338;2022-12-18T19:16:40;35.90;;;14.50;;
70535;SDS011;58089;48.752;11.338;2022-12-18T19:19:07;36.63;;;14.37;;
70535;SDS011;58089;48.752;11.338;2022-12-18T19:21:32;40.60;;;18.43;;
70535;SDS011;58089;48.752;11.338;2022-12-18T19:23:58;38.03;;;15.63;;
70535;SDS011;58089;48.752;11.338;2022-12-18T19:26:24;34.78;;;14.40;;
70535;SDS011;58089;48.752;11.338;2022-12-18T19:28:49;32.37;;;15.13;;
70535;SDS011;58089;48.752;11.338;2022-12-18T19:31:15;33.17;;;15.13;;
70535;SDS011;58089;48.752;11.338;2022-12-18T19:33:42;35.28;;;15.80;;
70535;SDS011;58089;48.752;11.338;2022-12-18T19:36:13;29.05;;;13.00;;
70535;SDS011;58089;48.752;11.338;2022-12-18T19:38:41;31.52;;;12.55;;
70535;SDS011;58089;48.752;11.338;2022-12-18T19:41:06;34.87;;;15.00;;
70535;SDS011;58089;48.752;11.338;2022-12-18T19:43:32;34.87;;;15.30;;
70535;SDS011;58089;48.752;11.338;2022-12-18T19:46:00;34.55;;;15.50;;
70535;SDS011;58089;48.752;11.338;2022-12-18T19:48:25;28.63;;;11.52;;
70535;SDS011;58089;48.752;11.338;2022-12-18T19:50:51;34.73;;;14.47;;
70535;SDS011;58089;48.752;11.338;2022-12-18T19:53:16;33.13;;;14.07;;
70535;SDS011;58089;48.752;11.338;2022-12-18T19:55:41;34.50;;;14.83;;
70535;SDS011;58089;48.752;11.338;2022-12-18T19:58:07;38.63;;;17.57;;
70535;SDS011;58089;48.752;11.338;2022-12-18T20:00:32;47.83;;;23.05;;
70535;SDS011;58089;48.752;11.338;2022-12-18T20:02:58;29.70;;;11.50;;
70535;SDS011;58089;48.752;11.338;2022-12-18T20:05:23;34.73;;;14.33;;
70535;SDS011;58089;48.752;11.338;2022-12-18T20:07:49;38.97;;;17.20;;
70535;SDS011;58089;48.752;11.338;2022-12-18T20:10:16;36.38;;;18.00;;
70535;SDS011;58089;48.752;11.338;2022-12-18T20:12:41;39.60;;;17.07;;
70535;SDS011;58089;48.752;11.338;2022-12-18T20:15:06;29.80;;;13.07;;
70535;SDS011;58089;48.752;11.338;2022-12-18T20:17:32;30.63;;;13.95;;
70535;SDS011;58089;48.752;11.338;2022-12-18T20:19:58;37.87;;;16.87;;
70535;SDS011;58089;48.752;11.338;2022-12-18T20:22:23;38.60;;;16.60;;
70535;SDS011;58089;48.752;11.338;2022-12-18T20:24:48;33.10;;;14.57;;
70535;SDS011;58089;48.752;11.338;2022-12-18T20:27:13;35.07;;;14.83;;
70535;SDS011;58089;48.752;11.338;2022-12-18T20:29:39;35.10;;;15.17;;
70535;SDS011;58089;48.752;11.338;2022-12-18T20:32:04;36.03;;;16.27;;
70535;SDS011;58089;48.752;11.338;2022-12-18T20:34:29;38.25;;;17.35;;
70535;SDS011;58089;48.752;11.338;2022-12-18T20:36:55;37.27;;;17.30;;
70535;SDS011;58089;48.752;11.338;2022-12-18T20:39:20;48.97;;;21.97;;
70535;SDS011;58089;48.752;11.338;2022-12-18T20:41:45;42.33;;;18.73;;
70535;SDS011;58089;48.752;11.338;2022-12-18T20:44:12;44.43;;;22.37;;
70535;SDS011;58089;48.752;11.338;2022-12-18T20:46:39;35.00;;;14.18;;
70535;SDS011;58089;48.752;11.338;2022-12-18T20:49:05;39.67;;;17.37;;
70535;SDS011;58089;48.752;11.338;2022-12-18T20:51:30;41.40;;;18.23;;
70535;SDS011;58089;48.752;11.338;2022-12-18T20:53:56;46.05;;;22.10;;
70535;SDS011;58089;48.752;11.338;2022-12-18T20:56:23;39.92;;;16.77;;
70535;SDS011;58089;48.752;11.338;2022-12-18T20:58:51;40.17;;;18.38;;
70535;SDS011;58089;48.752;11.338;2022-12-18T21:01:18;47.33;;;21.67;;
70535;SDS011;58089;48.752;11.338;2022-12-18T21:03:45;48.42;;;23.20;;
70535;SDS011;58089;48.752;11.338;2022-12-18T21:06:11;42.35;;;20.10;;
70535;SDS011;58089;48.752;11.338;2022-12-18T21:08:37;41.05;;;18.30;;
70535;SDS011;58089;48.752;11.338;2022-12-18T21:14:00;42.65;;;17.48;;
70535;SDS011;58089;48.752;11.338;2022-12-18T21:16:26;50.08;;;23.70;;
70535;SDS011;58089;48.752;11.338;2022-12-18T21:18:52;54.13;;;23.03;;
70535;SDS011;58089;48.752;11.338;2022-12-18T21:21:17;46.93;;;21.77;;
70535;SDS011;58089;48.752;11.338;2022-12-18T21:23:42;40.27;;;17.00;;
70535;SDS011;58089;48.752;11.338;2022-12-18T21:26:18;43.90;;;17.30;;
70535;SDS011;58089;48.752;11.338;2022-12-18T21:28:46;45.35;;;18.75;;
70535;SDS011;58089;48.752;11.338;2022-12-18T21:31:11;43.92;;;18.65;;
70535;SDS011;58089;48.752;11.338;2022-12-18T21:33:37;46.33;;;19.67;;
70535;SDS011;58089;48.752;11.338;2022-12-18T21:36:05;43.33;;;18.10;;
70535;SDS011;58089;48.752;11.338;2022-12-18T21:38:31;39.47;;;17.38;;
70535;SDS011;58089;48.752;11.338;2022-12-18T21:40:56;47.23;;;18.73;;
70535;SDS011;58089;48.752;11.338;2022-12-18T21:43:21;39.53;;;16.47;;
70535;SDS011;58089;48.752;11.338;2022-12-18T21:46:05;41.40;;;16.85;;
70535;SDS011;58089;48.752;11.338;2022-12-18T21:48:31;43.70;;;19.33;;
70535;SDS011;58089;48.752;11.338;2022-12-18T21:50:56;46.63;;;18.05;;
70535;SDS011;58089;48.752;11.338;2022-12-18T21:53:21;43.17;;;18.43;;
70535;SDS011;58089;48.752;11.338;2022-12-18T21:55:54;42.53;;;16.50;;
70535;SDS011;58089;48.752;11.338;2022-12-18T21:58:21;38.25;;;16.55;;
70535;SDS011;58089;48.752;11.338;2022-12-18T22:00:46;38.93;;;17.13;;
70535;SDS011;58089;48.752;11.338;2022-12-18T22:03:13;44.53;;;16.87;;
70535;SDS011;58089;48.752;11.338;2022-12-18T22:05:38;41.50;;;18.40;;
70535;SDS011;58089;48.752;11.338;2022-12-18T22:08:04;40.63;;;16.50;;
70535;SDS011;58089;48.752;11.338;2022-12-18T22:10:30;45.67;;;16.40;;
70535;SDS011;58089;48.752;11.338;2022-12-18T22:12:56;41.08;;;16.95;;
70535;SDS011;58089;48.752;11.338;2022-12-18T22:15:21;40.90;;;17.57;;
70535;SDS011;58089;48.752;11.338;2022-12-18T22:17:46;40.73;;;17.93;;
70535;SDS011;58089;48.752;11.338;2022-12-18T22:20:11;39.77;;;17.70;;
70535;SDS011;58089;48.752;11.338;2022-12-18T22:22:37;41.23;;;18.67;;
70535;SDS011;58089;48.752;11.338;2022-12-18T22:25:02;42.63;;;17.97;;
70535;SDS011;58089;48.752;11.338;2022-12-18T22:27:27;46.63;;;18.83;;
70535;SDS011;58089;48.752;11.338;2022-12-18T22:29:53;44.03;;;19.60;;
70535;SDS011;58089;48.752;11.338;2022-12-18T22:32:31;42.70;;;17.63;;
70535;SDS011;58089;48.752;11.338;2022-12-18T22:35:00;38.28;;;18.02;;
70535;SDS011;58089;48.752;11.338;2022-12-18T22:37:27;45.00;;;19.17;;
70535;SDS011;58089;48.752;11.338;2022-12-18T22:39:52;45.07;;;19.50;;
70535;SDS011;58089;48.752;11.338;2022-12-18T22:42:17;43.73;;;18.63;;
70535;SDS011;58089;48.752;11.338;2022-12-18T22:44:42;39.03;;;18.40;;
70535;SDS011;58089;48.752;11.338;2022-12-18T22:47:08;39.60;;;19.17;;
70535;SDS011;58089;48.752;11.338;2022-12-18T22:49:34;42.97;;;18.92;;
70535;SDS011;58089;48.752;11.338;2022-12-18T22:51:59;44.27;;;19.60;;
70535;SDS011;58089;48.752;11.338;2022-12-18T22:54:24;43.60;;;18.57;;
70535;SDS011;58089;48.752;11.338;2022-12-18T22:56:50;42.13;;;18.63;;
70535;SDS011;58089;48.752;11.338;2022-12-18T22:59:19;42.37;;;19.77;;
